createdAt,value
2022-09-24T06:15:48.839Z,86
2022-09-24T06:17:01.832Z,86
2022-09-24T06:18:14.810Z,86
2022-09-24T06:19:27.750Z,86
2022-09-24T06:20:40.880Z,86
2022-09-24T06:21:53.745Z,86
2022-09-24T06:23:06.946Z,86
2022-09-24T06:24:20.384Z,86
2022-09-24T06:25:32.763Z,86
2022-09-24T06:26:45.643Z,86
2022-09-24T06:27:58.761Z,86
2022-09-24T06:29:11.962Z,86
2022-09-24T06:30:24.972Z,86
2022-09-24T06:31:37.896Z,86
2022-09-24T06:32:50.783Z,86
2022-09-24T06:34:03.794Z,86
2022-09-24T06:35:17.272Z,86
2022-09-24T06:36:29.761Z,86
2022-09-24T06:37:42.759Z,86
2022-09-24T06:38:56.090Z,86
2022-09-24T06:40:08.827Z,86
2022-09-24T06:41:21.768Z,86
2022-09-24T06:42:34.745Z,86
2022-09-24T06:43:47.770Z,86
2022-09-24T06:45:00.957Z,86
2022-09-24T06:46:13.838Z,86
2022-09-24T06:47:26.900Z,85
2022-09-24T06:48:39.655Z,84
2022-09-24T06:49:52.655Z,84
2022-09-24T06:51:05.751Z,85
2022-09-24T06:52:18.767Z,85
2022-09-24T06:53:31.741Z,85
2022-09-24T06:54:44.755Z,85
2022-09-24T06:55:57.750Z,84
2022-09-24T06:57:10.853Z,84
2022-09-24T06:58:23.759Z,84
2022-09-24T06:59:36.644Z,84
2022-09-24T07:00:49.803Z,84
2022-09-24T07:02:03.062Z,84
2022-09-24T07:03:15.741Z,84
2022-09-24T07:04:28.725Z,84
2022-09-24T07:05:44.785Z,84
2022-09-24T07:06:54.676Z,84
2022-09-24T07:08:07.906Z,84
2022-09-24T07:09:20.766Z,83
2022-09-24T07:10:33.817Z,83
2022-09-24T07:11:46.797Z,83
2022-09-24T07:12:59.793Z,83
2022-09-24T07:14:12.729Z,83
2022-09-24T07:15:25.902Z,83
2022-09-24T07:16:39.068Z,83
2022-09-24T07:17:51.759Z,83
2022-09-24T07:19:04.802Z,83
2022-09-24T07:20:17.749Z,83
2022-09-24T07:21:30.750Z,83
2022-09-24T07:22:43.841Z,82
2022-09-24T07:23:59.632Z,82
2022-09-24T07:25:09.749Z,82
2022-09-24T07:26:22.759Z,82
2022-09-24T07:27:35.844Z,82
2022-09-24T07:28:48.633Z,82
2022-09-24T07:32:30.134Z,82
2022-09-24T07:33:40.742Z,82
2022-09-24T07:34:53.743Z,82
2022-09-24T07:36:06.713Z,82
2022-09-24T07:37:19.748Z,82
2022-09-24T07:38:33.106Z,82
2022-09-24T07:39:46.432Z,82
2022-09-24T07:40:58.980Z,82
2022-09-24T07:42:11.917Z,82
2022-09-24T07:43:24.791Z,82
2022-09-24T07:44:37.601Z,82
2022-09-24T07:45:50.759Z,82
2022-09-24T07:47:03.535Z,82
2022-09-24T07:48:16.986Z,81
2022-09-24T07:49:29.756Z,81
2022-09-24T07:50:42.883Z,81
2022-09-24T07:51:55.869Z,81
2022-09-24T07:53:08.731Z,81
2022-09-24T07:54:21.792Z,81
2022-09-24T07:55:34.632Z,81
2022-09-24T07:56:47.740Z,81
2022-09-24T07:58:01.088Z,81
2022-09-24T07:59:13.655Z,81
2022-09-24T08:00:26.957Z,81
2022-09-24T08:01:39.880Z,81
2022-09-24T08:02:53.247Z,81
2022-09-24T08:06:38.462Z,81
2022-09-24T08:07:44.824Z,80
2022-09-24T08:08:57.773Z,80
2022-09-24T08:10:10.949Z,80
2022-09-24T08:11:23.911Z,80
2022-09-24T08:12:37.127Z,79
2022-09-24T08:13:49.900Z,79
2022-09-24T08:15:02.814Z,79
2022-09-24T08:16:15.869Z,79
2022-09-24T08:17:28.773Z,79
2022-09-24T08:18:41.761Z,79
2022-09-24T08:19:54.781Z,79
2022-09-24T08:21:07.781Z,79
2022-09-24T08:22:20.774Z,79
2022-09-24T08:23:33.643Z,79
2022-09-24T08:24:46.811Z,79
2022-09-24T08:25:59.806Z,79
2022-09-24T08:27:17.409Z,79
2022-09-24T08:28:25.827Z,79
2022-09-24T08:29:38.811Z,79
2022-09-24T08:30:52.060Z,79
2022-09-24T08:32:04.864Z,79
2022-09-24T08:33:17.761Z,79
2022-09-24T08:34:30.816Z,78
2022-09-24T08:35:43.762Z,78
2022-09-24T08:36:56.790Z,78
2022-09-24T08:38:09.780Z,78
2022-09-24T08:39:22.757Z,78
2022-09-24T08:40:35.814Z,78
2022-09-24T08:41:49.512Z,77
2022-09-24T08:43:07.594Z,77
2022-09-24T08:44:14.632Z,77
2022-09-24T08:45:27.929Z,77
2022-09-24T08:46:40.842Z,77
2022-09-24T08:47:53.780Z,77
2022-09-24T08:49:06.769Z,77
2022-09-24T08:50:19.954Z,77
2022-09-24T08:51:33.747Z,76
2022-09-24T08:52:45.760Z,76
2022-09-24T08:53:58.782Z,76
2022-09-24T08:55:11.808Z,76
2022-09-24T08:56:24.766Z,76
2022-09-24T08:57:37.381Z,76
2022-09-24T08:58:51.009Z,76
2022-09-24T09:00:03.784Z,76
2022-09-24T09:01:16.929Z,75
2022-09-24T09:02:30.108Z,75
2022-09-24T09:03:42.798Z,75
2022-09-24T09:04:55.786Z,75
2022-09-24T09:06:08.751Z,75
2022-09-24T09:07:22.338Z,75
2022-09-24T09:08:50.341Z,75
2022-09-24T09:09:47.804Z,75
2022-09-24T09:11:00.797Z,75
2022-09-24T09:12:13.803Z,75
2022-09-24T09:13:26.953Z,75
2022-09-24T09:14:42.926Z,75
2022-09-24T09:15:52.874Z,75
2022-09-24T10:42:15.742Z,69
2022-09-24T10:43:28.734Z,68
2022-09-24T10:44:41.747Z,68
2022-09-24T10:45:54.780Z,68
2022-09-24T10:47:08.291Z,68
2022-09-24T10:49:33.746Z,68
2022-09-24T10:50:46.733Z,67
2022-09-24T10:51:59.729Z,67
2022-09-24T10:53:12.632Z,67
2022-09-24T10:54:25.704Z,67
2022-09-24T10:55:38.884Z,66
2022-09-24T10:56:51.767Z,66
2022-09-24T10:58:04.824Z,65
2022-09-24T10:59:17.722Z,66
2022-09-24T11:00:30.938Z,66
2022-09-24T11:01:43.783Z,65
2022-09-24T11:02:56.692Z,65
2022-09-24T11:04:09.909Z,65
2022-09-24T11:05:22.716Z,65
2022-09-24T11:06:35.888Z,65
2022-09-24T11:07:48.705Z,65
2022-09-24T11:09:01.805Z,65
2022-09-24T11:10:14.618Z,65
2022-09-24T11:11:28.066Z,65
2022-09-24T11:12:40.737Z,65
2022-09-24T11:13:53.751Z,65
2022-09-24T11:15:06.763Z,64
2022-09-24T17:14:01.835Z,76
2022-09-24T17:38:21.533Z,78
2022-09-24T17:40:47.778Z,78
2022-09-24T17:44:26.703Z,78
2022-09-24T17:48:06.084Z,79
2022-09-24T17:49:18.320Z,79
2022-09-24T17:50:31.359Z,79
2022-09-24T17:51:44.707Z,79
2022-09-24T18:06:20.914Z,79
2022-09-24T18:07:33.795Z,79
2022-09-24T18:10:00.042Z,80
2022-09-24T18:11:12.938Z,80
2022-09-24T18:12:25.441Z,80
